Time;durP1;ratioP1;P1;durP2;ratioP2;P2;SDS_P1;SDS_P2;PMS_P1;PMS_P2;Temp;Humidity;BMP_temperature;BMP_pressure;BME280_temperature;BME280_humidity;BME280_pressure;Samples;Min_cycle;Max_cycle;Signal;HPM_P1;HPM_P2
2021/12/01 00:00:14;;;;;;;3.70;3.40;;;3.50;99.90;;;;;;5019939;28;20234;-79
2021/12/01 00:02:40;;;;;;;3.27;2.97;;;3.50;99.90;;;;;;5019390;28;20187;-79
2021/12/01 00:05:08;;;;;;;4.10;3.80;;;3.60;99.90;;;;;;5035858;28;20172;-79
2021/12/01 00:07:36;;;;;;;3.90;3.60;;;3.60;99.90;;;;;;5017519;28;20200;-79
2021/12/01 00:10:05;;;;;;;5.20;3.77;;;3.60;99.90;;;;;;5018106;28;20180;-78
2021/12/01 00:12:31;;;;;;;4.43;4.03;;;3.50;99.90;;;;;;5019922;28;20208;-78
2021/12/01 00:14:56;;;;;;;5.70;4.00;;;3.50;99.90;;;;;;5018957;28;20172;-78
2021/12/01 00:17:22;;;;;;;4.40;4.00;;;3.60;99.90;;;;;;5016678;28;20207;-78
2021/12/01 00:19:48;;;;;;;4.80;4.40;;;3.50;99.90;;;;;;5020097;28;20232;-78
2021/12/01 00:22:14;;;;;;;4.60;4.20;;;3.50;99.90;;;;;;5020119;28;20179;-79
2021/12/01 00:24:39;;;;;;;3.97;3.67;;;3.50;99.90;;;;;;5022557;28;20228;-80
2021/12/01 00:27:05;;;;;;;4.90;4.50;;;3.60;99.90;;;;;;5021854;28;20208;-79
2021/12/01 00:29:31;;;;;;;3.83;3.53;;;3.60;99.90;;;;;;5019329;28;20260;-78
2021/12/01 00:31:56;;;;;;;3.80;3.50;;;3.70;99.90;;;;;;5018447;28;20184;-78
2021/12/01 00:34:25;;;;;;;6.50;3.80;;;3.70;99.90;;;;;;5020963;28;20185;-79
2021/12/01 00:36:50;;;;;;;5.17;3.40;;;3.70;99.90;;;;;;5018871;28;20777;-79
2021/12/01 00:39:16;;;;;;;3.40;3.10;;;3.80;99.90;;;;;;5020902;28;20180;-79
2021/12/01 00:41:42;;;;;;;3.87;3.57;;;3.80;99.90;;;;;;5022240;28;20547;-79
2021/12/01 00:44:09;;;;;;;3.73;3.43;;;3.80;99.90;;;;;;5023563;28;20204;-79
2021/12/01 00:47:04;;;;;;;3.20;2.90;;;3.90;99.90;;;;;;5020769;28;20683;-79
2021/12/01 00:49:22;;;;;;;3.40;3.10;;;4.60;99.90;;;;;;5020223;28;20240;-79
2021/12/01 00:51:48;;;;;;;3.57;3.23;;;3.90;99.90;;;;;;5019503;28;20176;-79
2021/12/01 00:54:14;;;;;;;3.40;3.10;;;3.90;99.90;;;;;;5020560;28;20213;-79
2021/12/01 00:56:40;;;;;;;3.03;2.80;;;3.90;99.90;;;;;;5020932;28;20208;-79
2021/12/01 00:59:06;;;;;;;3.13;2.83;;;4.00;99.90;;;;;;5017115;28;20179;-78
2021/12/01 01:01:34;;;;;;;3.67;3.03;;;4.80;99.90;;;;;;5022095;28;20189;-79
2021/12/01 01:04:00;;;;;;;2.17;2.07;;;4.60;99.90;;;;;;5025425;28;20251;-79
2021/12/01 01:06:26;;;;;;;2.13;1.93;;;4.00;99.90;;;;;;5026204;28;20180;-78
2021/12/01 01:08:52;;;;;;;2.40;2.00;;;4.10;99.90;;;;;;5031701;28;20235;-79
2021/12/01 01:16:49;;;;;;;2.80;1.63;;;4.20;99.90;;;;;;5024494;28;20277;-80
2021/12/01 01:19:16;;;;;;;2.07;1.80;;;4.30;99.90;;;;;;5022978;28;20178;-80
2021/12/01 01:21:47;;;;;;;1.80;1.70;;;4.20;99.90;;;;;;5027480;28;20185;-80
2021/12/01 01:24:13;;;;;;;2.07;1.87;;;4.20;99.90;;;;;;5025106;28;20180;-81
2021/12/01 01:26:39;;;;;;;2.43;2.20;;;4.20;99.90;;;;;;5022692;28;20635;-80
2021/12/01 01:29:06;;;;;;;2.00;1.77;;;4.20;99.90;;;;;;5024768;28;20210;-80
2021/12/01 01:31:33;;;;;;;1.90;1.80;;;4.20;99.90;;;;;;5025319;28;20246;-79
2021/12/01 01:33:59;;;;;;;1.80;1.63;;;4.20;99.90;;;;;;5024626;28;20212;-79
2021/12/01 01:36:26;;;;;;;1.87;1.77;;;4.20;99.90;;;;;;5025655;28;20207;-80
2021/12/01 01:38:56;;;;;;;2.30;2.10;;;5.50;99.90;;;;;;5024078;28;20215;-80
2021/12/01 01:41:21;;;;;;;1.90;1.70;;;4.20;99.90;;;;;;5025808;28;20181;-79
2021/12/01 01:43:49;;;;;;;1.70;1.60;;;4.20;99.90;;;;;;5028228;28;20190;-80
2021/12/01 01:46:16;;;;;;;1.50;1.40;;;4.20;99.90;;;;;;5024970;28;20212;-79
2021/12/01 01:48:49;;;;;;;1.57;1.47;;;4.30;99.90;;;;;;5025451;28;20175;-80
2021/12/01 01:51:20;;;;;;;1.80;1.63;;;4.30;99.90;;;;;;5025889;28;20188;-80
2021/12/01 01:53:48;;;;;;;1.63;1.53;;;4.30;99.90;;;;;;5023877;28;20561;-79
2021/12/01 01:56:14;;;;;;;2.97;2.13;;;4.30;99.90;;;;;;5021462;28;20222;-78
2021/12/01 01:58:40;;;;;;;2.60;1.80;;;4.30;99.90;;;;;;5025877;28;20174;-79
2021/12/01 02:01:22;;;;;;;2.23;2.07;;;4.40;99.90;;;;;;5026458;28;20180;-80
2021/12/01 02:03:49;;;;;;;2.73;2.03;;;4.30;99.90;;;;;;5025827;28;20175;-78
2021/12/01 02:06:22;;;;;;;2.20;2.00;;;4.40;99.90;;;;;;5023011;28;20219;-80
2021/12/01 02:08:48;;;;;;;2.20;2.00;;;4.40;99.90;;;;;;5021219;28;20180;-79
2021/12/01 02:11:17;;;;;;;2.50;1.87;;;4.30;99.90;;;;;;5023234;28;20183;-80
2021/12/01 02:13:44;;;;;;;3.37;2.40;;;4.30;99.90;;;;;;5025541;28;20652;-80
2021/12/01 02:16:12;;;;;;;3.57;2.40;;;4.30;99.90;;;;;;5037705;28;20629;-80
2021/12/01 02:18:39;;;;;;;2.63;2.43;;;4.30;99.90;;;;;;5026110;28;20670;-80
2021/12/01 02:21:13;;;;;;;3.03;2.73;;;4.30;99.90;;;;;;5025150;28;20172;-80
2021/12/01 02:23:42;;;;;;;2.40;2.20;;;4.30;99.90;;;;;;5024685;28;20191;-79
2021/12/01 02:26:12;;;;;;;3.00;2.70;;;5.40;99.90;;;;;;5026261;28;20268;-79
2021/12/01 02:28:44;;;;;;;2.33;2.13;;;4.40;99.90;;;;;;5027371;28;20328;-79
2021/12/01 02:31:10;;;;;;;2.70;2.50;;;4.40;99.90;;;;;;5024776;28;20270;-79
2021/12/01 02:33:36;;;;;;;3.53;2.70;;;4.40;99.90;;;;;;5025944;28;20180;-81
2021/12/01 02:36:02;;;;;;;2.93;2.33;;;4.40;99.90;;;;;;5025322;28;20205;-79
2021/12/01 02:38:28;;;;;;;2.37;2.17;;;4.40;99.90;;;;;;5022133;28;20215;-79
2021/12/01 02:40:54;;;;;;;2.03;1.83;;;4.50;99.90;;;;;;5022020;28;20187;-79
2021/12/01 02:43:24;;;;;;;2.10;1.80;;;4.50;99.90;;;;;;5022288;28;20177;-80
2021/12/01 02:45:54;;;;;;;2.40;1.90;;;4.50;99.90;;;;;;5023075;28;20181;-80
2021/12/01 02:48:21;;;;;;;2.17;1.97;;;4.50;99.90;;;;;;5023501;28;20291;-78
2021/12/01 02:50:48;;;;;;;1.60;1.50;;;4.60;99.90;;;;;;5023571;28;20272;-79
2021/12/01 02:53:14;;;;;;;1.70;1.57;;;4.60;99.90;;;;;;5023525;28;20276;-79
2021/12/01 02:55:51;;;;;;;2.20;1.70;;;5.00;99.90;;;;;;5015488;28;20231;-79
2021/12/01 02:58:18;;;;;;;1.90;1.50;;;4.70;99.90;;;;;;5021590;28;20200;-78
2021/12/01 03:00:44;;;;;;;1.87;1.67;;;4.70;99.90;;;;;;5019512;28;20173;-79
2021/12/01 03:03:11;;;;;;;2.20;1.70;;;4.70;99.90;;;;;;5020032;28;20532;-78
2021/12/01 03:05:38;;;;;;;1.87;1.77;;;4.70;99.90;;;;;;5017520;28;20183;-77
2021/12/01 03:08:05;;;;;;;1.13;1.10;;;4.70;99.90;;;;;;4999109;28;20210;-79
2021/12/01 03:10:31;;;;;;;1.13;1.10;;;4.70;99.90;;;;;;5018393;28;20230;-78
2021/12/01 03:13:02;;;;;;;1.90;1.30;;;4.80;99.90;;;;;;5002633;28;20185;-79
2021/12/01 03:15:28;;;;;;;1.97;1.47;;;4.80;99.90;;;;;;5015314;28;20209;-78
2021/12/01 03:18:00;;;;;;;2.57;1.60;;;4.80;99.90;;;;;;5018036;28;20206;-79
2021/12/01 03:20:26;;;;;;;3.53;1.40;;;4.80;99.90;;;;;;5020474;28;20213;-77
2021/12/01 03:22:57;;;;;;;1.43;1.23;;;4.90;99.90;;;;;;5016897;28;20255;-79
2021/12/01 03:25:23;;;;;;;2.43;1.60;;;4.90;99.90;;;;;;5008056;28;20652;-79
2021/12/01 03:27:49;;;;;;;3.27;1.30;;;4.80;99.90;;;;;;5011519;28;20193;-79
2021/12/01 03:30:16;;;;;;;1.40;1.10;;;4.90;99.90;;;;;;5020962;28;20209;-79
2021/12/01 03:32:42;;;;;;;2.37;1.30;;;4.90;99.90;;;;;;5022050;28;20186;-78
2021/12/01 03:35:10;;;;;;;1.80;0.80;;;4.90;99.90;;;;;;5021236;28;20252;-79
2021/12/01 03:37:37;;;;;;;1.50;1.40;;;4.90;99.90;;;;;;5021205;28;20213;-80
2021/12/01 03:40:05;;;;;;;1.63;1.40;;;5.00;99.90;;;;;;5018428;28;20172;-78
2021/12/01 03:42:31;;;;;;;1.63;1.53;;;5.00;99.90;;;;;;5023080;28;20181;-81
2021/12/01 03:44:57;;;;;;;2.80;1.50;;;4.90;99.90;;;;;;5023433;28;20249;-79
2021/12/01 03:47:23;;;;;;;1.50;1.40;;;4.90;99.90;;;;;;5029211;28;20196;-79
2021/12/01 03:49:49;;;;;;;1.20;1.10;;;4.90;99.90;;;;;;5044339;28;20200;-79
2021/12/01 03:52:17;;;;;;;1.53;1.07;;;5.00;99.90;;;;;;5051165;28;20175;-78
2021/12/01 03:54:50;;;;;;;1.13;1.00;;;5.00;99.90;;;;;;5025132;28;20192;-81
2021/12/01 03:57:16;;;;;;;1.40;1.30;;;4.90;99.90;;;;;;5021574;28;20201;-78
2021/12/01 03:59:42;;;;;;;1.10;1.03;;;5.60;99.90;;;;;;5021820;28;20192;-80
2021/12/01 04:02:09;;;;;;;1.73;1.30;;;4.90;99.90;;;;;;5019648;28;20179;-79
2021/12/01 04:04:35;;;;;;;1.20;1.10;;;5.00;99.90;;;;;;5020876;28;20182;-80
2021/12/01 04:07:01;;;;;;;1.50;1.40;;;4.90;99.90;;;;;;5021659;28;20191;-79
2021/12/01 04:09:28;;;;;;;1.87;1.63;;;4.90;99.90;;;;;;5019333;28;20184;-80
2021/12/01 04:11:54;;;;;;;2.20;1.47;;;5.00;99.90;;;;;;5021425;28;20326;-79
2021/12/01 04:14:23;;;;;;;2.10;1.87;;;4.90;99.90;;;;;;5018386;28;20221;-78
2021/12/01 04:16:49;;;;;;;2.00;1.70;;;4.90;99.90;;;;;;5020415;28;20273;-79
2021/12/01 04:19:17;;;;;;;2.17;1.50;;;4.90;99.90;;;;;;5021890;28;20205;-79
2021/12/01 04:21:46;;;;;;;2.20;1.70;;;4.80;99.90;;;;;;5022933;28;20241;-80
2021/12/01 04:24:12;;;;;;;1.83;1.47;;;4.90;99.90;;;;;;5033968;28;20178;-81
2021/12/01 04:26:37;;;;;;;1.90;1.70;;;4.80;99.90;;;;;;5017680;28;20205;-78
2021/12/01 04:29:06;;;;;;;1.60;1.50;;;4.80;99.90;;;;;;5018753;28;20383;-79
2021/12/01 04:31:36;;;;;;;2.83;2.30;;;4.80;99.90;;;;;;5019093;28;20187;-80
2021/12/01 04:34:03;;;;;;;2.47;2.27;;;4.80;99.90;;;;;;5022902;28;20269;-79
2021/12/01 04:36:32;;;;;;;2.60;2.37;;;4.70;99.90;;;;;;5018728;28;20299;-79
2021/12/01 04:38:58;;;;;;;2.43;2.13;;;4.70;99.90;;;;;;5021214;28;20182;-79
2021/12/01 04:41:25;;;;;;;4.83;2.43;;;4.70;99.90;;;;;;5021585;28;20203;-79
2021/12/01 04:43:53;;;;;;;4.67;2.90;;;4.60;99.90;;;;;;5021399;28;20227;-79
2021/12/01 04:46:20;;;;;;;4.10;2.73;;;4.60;99.90;;;;;;5018326;28;20233;-79
2021/12/01 04:48:47;;;;;;;2.80;2.60;;;4.60;99.90;;;;;;5021284;28;20268;-79
2021/12/01 04:51:13;;;;;;;2.70;2.50;;;4.60;99.90;;;;;;5022247;28;20199;-79
2021/12/01 04:53:39;;;;;;;2.33;2.20;;;4.60;99.90;;;;;;5020858;28;20200;-78
2021/12/01 04:56:06;;;;;;;2.37;2.17;;;4.60;99.90;;;;;;5018222;28;20197;-79
2021/12/01 04:58:33;;;;;;;3.47;2.80;;;4.50;99.90;;;;;;5014931;28;20199;-78
2021/12/01 05:00:59;;;;;;;3.30;3.00;;;4.60;99.90;;;;;;5012862;28;20720;-78
2021/12/01 05:03:26;;;;;;;3.40;3.10;;;4.50;99.90;;;;;;5000218;28;20177;-79
2021/12/01 05:05:52;;;;;;;3.60;3.40;;;4.50;99.90;;;;;;5004603;28;20183;-79
2021/12/01 05:08:20;;;;;;;4.23;3.20;;;4.50;99.90;;;;;;5007903;28;20204;-77
2021/12/01 05:10:54;;;;;;;4.37;3.60;;;4.50;99.90;;;;;;5013257;28;20179;-80
2021/12/01 05:13:21;;;;;;;3.93;3.60;;;4.40;99.90;;;;;;5013693;28;20189;-79
2021/12/01 05:15:46;;;;;;;4.20;3.67;;;4.40;99.90;;;;;;5017409;28;20221;-78
2021/12/01 05:18:12;;;;;;;4.17;3.77;;;4.40;99.90;;;;;;5017020;28;20719;-80
2021/12/01 05:20:39;;;;;;;3.33;3.10;;;4.40;99.90;;;;;;5014661;28;20255;-78
2021/12/01 05:23:05;;;;;;;4.83;3.40;;;4.40;99.90;;;;;;5014939;28;20181;-78
2021/12/01 05:25:30;;;;;;;4.10;3.70;;;4.40;99.90;;;;;;5018844;28;20223;-78
2021/12/01 05:27:56;;;;;;;4.63;3.47;;;4.30;99.90;;;;;;5019419;28;20229;-78
2021/12/01 05:30:22;;;;;;;3.63;3.23;;;4.50;99.90;;;;;;5020000;28;20175;-79
2021/12/01 05:32:48;;;;;;;4.23;3.83;;;4.30;99.90;;;;;;5020783;28;20598;-79
2021/12/01 05:35:14;;;;;;;4.73;3.73;;;4.30;99.90;;;;;;5020039;28;20167;-78
2021/12/01 05:37:40;;;;;;;4.10;3.70;;;4.30;99.90;;;;;;5019002;28;20343;-78
2021/12/01 05:40:06;;;;;;;3.87;3.57;;;4.20;99.90;;;;;;5020738;28;20205;-79
2021/12/01 05:42:32;;;;;;;5.07;4.57;;;4.20;99.90;;;;;;5016491;28;20177;-78
2021/12/01 05:44:58;;;;;;;4.03;3.73;;;4.20;99.90;;;;;;5016239;28;20283;-78
2021/12/01 05:47:24;;;;;;;3.63;3.30;;;4.20;99.90;;;;;;5017561;28;20232;-78
2021/12/01 05:49:49;;;;;;;3.67;3.37;;;4.20;99.90;;;;;;5018837;28;20691;-78
2021/12/01 05:52:16;;;;;;;3.70;3.40;;;4.20;99.90;;;;;;5021474;28;20525;-79
2021/12/01 05:54:43;;;;;;;3.80;3.50;;;4.10;99.90;;;;;;5017062;28;20180;-78
2021/12/01 05:57:10;;;;;;;4.17;3.60;;;4.10;99.90;;;;;;5015761;28;20203;-78
2021/12/01 05:59:36;;;;;;;4.00;3.60;;;4.10;99.90;;;;;;5020680;28;20184;-78
2021/12/01 06:02:02;;;;;;;4.30;3.80;;;4.10;99.90;;;;;;5020519;28;20172;-79
2021/12/01 06:04:28;;;;;;;6.47;3.43;;;4.10;99.90;;;;;;5020053;28;20177;-79
2021/12/01 06:06:53;;;;;;;3.93;3.53;;;4.00;99.90;;;;;;5019635;28;20203;-78
2021/12/01 06:09:19;;;;;;;3.83;3.50;;;4.00;99.90;;;;;;5020026;28;20178;-79
2021/12/01 06:11:47;;;;;;;4.37;3.50;;;3.90;99.90;;;;;;5023232;28;20190;-79
2021/12/01 06:14:14;;;;;;;4.43;4.03;;;4.00;99.90;;;;;;5017478;28;20189;-78
2021/12/01 06:16:42;;;;;;;3.63;3.33;;;3.90;99.90;;;;;;5021146;28;20208;-78
2021/12/01 06:19:07;;;;;;;3.43;3.13;;;4.20;99.90;;;;;;5022645;28;20173;-79
2021/12/01 06:21:33;;;;;;;3.83;3.53;;;4.00;99.90;;;;;;5023249;28;20184;-79
2021/12/01 06:23:59;;;;;;;4.40;4.00;;;4.00;99.90;;;;;;5024584;28;20185;-79
2021/12/01 06:26:24;;;;;;;4.03;3.67;;;3.90;99.90;;;;;;5020098;28;20179;-79
2021/12/01 06:28:51;;;;;;;3.80;3.33;;;3.90;99.90;;;;;;5017758;28;20186;-78
2021/12/01 06:31:19;;;;;;;4.47;4.07;;;3.90;99.90;;;;;;5025286;28;20190;-79
2021/12/01 06:33:45;;;;;;;4.70;4.13;;;3.90;99.90;;;;;;5017472;28;20674;-81
2021/12/01 06:36:11;;;;;;;5.33;4.83;;;3.80;99.90;;;;;;5024895;28;20234;-80
2021/12/01 06:38:39;;;;;;;6.97;5.37;;;3.80;99.90;;;;;;5024408;28;20208;-79
2021/12/01 06:41:06;;;;;;;6.47;5.50;;;3.80;99.90;;;;;;5023959;28;20265;-79
2021/12/01 06:43:32;;;;;;;6.57;5.77;;;4.40;99.90;;;;;;5019196;28;20181;-80
2021/12/01 06:45:58;;;;;;;6.33;5.73;;;3.70;99.90;;;;;;5018442;28;20183;-78
2021/12/01 06:48:27;;;;;;;6.67;6.07;;;3.70;99.90;;;;;;5011531;28;20270;-80
2021/12/01 06:50:53;;;;;;;6.83;6.13;;;3.70;99.90;;;;;;5024157;28;20185;-80
2021/12/01 06:53:18;;;;;;;7.87;6.43;;;3.60;99.90;;;;;;5027552;28;20187;-78
2021/12/01 06:55:47;;;;;;;6.80;5.87;;;3.70;99.90;;;;;;5025649;28;20250;-79
2021/12/01 06:58:13;;;;;;;6.93;6.33;;;3.60;99.90;;;;;;5012204;28;20293;-78
2021/12/01 07:00:42;;;;;;;7.00;6.40;;;3.60;99.90;;;;;;5010334;28;20178;-77
2021/12/01 07:03:08;;;;;;;9.70;7.03;;;3.90;99.90;;;;;;4997651;28;20209;-78
2021/12/01 07:05:33;;;;;;;9.17;8.03;;;3.60;99.90;;;;;;5003825;28;20180;-79
2021/12/01 07:07:59;;;;;;;8.10;7.37;;;3.60;99.90;;;;;;5006089;28;20272;-79
2021/12/01 07:10:25;;;;;;;7.93;7.23;;;3.50;99.90;;;;;;5024250;28;20190;-79
2021/12/01 07:12:51;;;;;;;7.63;7.03;;;3.50;99.90;;;;;;5007515;28;20180;-80
2021/12/01 07:15:18;;;;;;;8.30;7.50;;;3.70;99.90;;;;;;5005231;28;20180;-78
2021/12/01 07:17:43;;;;;;;8.83;7.93;;;3.50;99.90;;;;;;5008682;28;20208;-80
2021/12/01 07:20:10;;;;;;;9.30;7.53;;;3.50;99.90;;;;;;5016662;28;20655;-79
2021/12/01 07:22:41;;;;;;;9.40;8.40;;;3.50;99.90;;;;;;5015574;28;20180;-78
2021/12/01 07:25:08;;;;;;;9.23;8.33;;;3.50;99.90;;;;;;5021595;28;20174;-79
2021/12/01 07:27:34;;;;;;;8.93;8.03;;;3.50;99.90;;;;;;5004087;28;20202;-78
2021/12/01 07:30:00;;;;;;;8.47;7.60;;;3.50;99.90;;;;;;5006433;28;20533;-78
2021/12/01 07:32:25;;;;;;;8.77;7.93;;;3.50;99.90;;;;;;5016084;28;20182;-79
2021/12/01 07:34:51;;;;;;;8.43;7.63;;;3.40;99.90;;;;;;5022809;28;20674;-80
2021/12/01 07:37:18;;;;;;;8.80;7.53;;;3.50;99.90;;;;;;5022665;28;20222;-80
2021/12/01 07:39:45;;;;;;;7.70;7.00;;;3.50;99.90;;;;;;5011429;28;20193;-79
2021/12/01 07:42:12;;;;;;;8.13;6.90;;;3.50;99.90;;;;;;5024179;28;20206;-79
2021/12/01 07:44:38;;;;;;;9.13;7.13;;;3.50;99.90;;;;;;5013540;28;20185;-79
2021/12/01 07:47:05;;;;;;;10.53;7.13;;;3.60;99.90;;;;;;5003586;28;20207;-78
2021/12/01 07:49:31;;;;;;;7.33;6.63;;;3.60;99.90;;;;;;5022325;28;20191;-78
2021/12/01 07:51:58;;;;;;;7.17;6.47;;;3.70;99.90;;;;;;5013324;28;20189;-79
2021/12/01 07:54:23;;;;;;;6.93;6.33;;;3.70;99.90;;;;;;5013551;28;20180;-79
2021/12/01 07:56:50;;;;;;;7.77;7.07;;;3.80;99.90;;;;;;5004829;28;20640;-79
2021/12/01 07:59:16;;;;;;;8.23;7.23;;;3.70;99.90;;;;;;5002028;28;20333;-78
2021/12/01 08:01:45;;;;;;;6.87;6.27;;;3.80;99.90;;;;;;5027132;28;20686;-81
2021/12/01 08:04:12;;;;;;;7.20;6.57;;;3.80;99.90;;;;;;5027368;28;20180;-79
2021/12/01 08:06:39;;;;;;;6.97;6.17;;;3.80;99.90;;;;;;5034743;28;20384;-80
2021/12/01 08:09:06;;;;;;;6.90;6.17;;;3.80;99.90;;;;;;5019198;28;20177;-78
2021/12/01 08:11:33;;;;;;;6.63;6.03;;;3.80;99.90;;;;;;5005283;28;20235;-79
2021/12/01 08:13:59;;;;;;;7.50;6.83;;;3.80;99.90;;;;;;5002863;28;20186;-77
2021/12/01 08:16:26;;;;;;;6.03;5.43;;;3.80;99.90;;;;;;5013390;28;20286;-79
2021/12/01 08:18:54;;;;;;;7.03;6.17;;;3.80;99.90;;;;;;5004627;28;20177;-78
2021/12/01 08:21:23;;;;;;;5.93;5.40;;;3.90;99.90;;;;;;5022895;28;20175;-79
2021/12/01 08:23:49;;;;;;;5.60;5.00;;;3.90;99.90;;;;;;5028886;28;20188;-79
2021/12/01 08:26:16;;;;;;;5.33;4.83;;;4.00;99.90;;;;;;5013462;28;20564;-78
2021/12/01 08:28:42;;;;;;;5.83;4.77;;;4.10;99.90;;;;;;5004484;28;20189;-80
2021/12/01 08:31:12;;;;;;;4.73;4.30;;;4.30;99.90;;;;;;5020156;28;20216;-79
2021/12/01 08:33:38;;;;;;;4.23;3.83;;;3.70;99.90;;;;;;5005484;28;20185;-78
2021/12/01 08:36:04;;;;;;;4.87;4.37;;;4.50;99.90;;;;;;4996575;28;20222;-78
2021/12/01 08:38:29;;;;;;;5.27;4.13;;;4.50;99.90;;;;;;5008618;28;20227;-79
2021/12/01 08:40:55;;;;;;;4.77;4.37;;;4.60;99.90;;;;;;4997462;28;20221;-78
2021/12/01 08:43:21;;;;;;;4.07;3.67;;;4.90;99.90;;;;;;5010473;28;20183;-78
2021/12/01 08:45:46;;;;;;;4.37;3.97;;;4.70;99.90;;;;;;4996018;28;20190;-78
2021/12/01 08:48:15;;;;;;;4.50;4.03;;;4.70;99.90;;;;;;5028811;28;20246;-78
2021/12/01 08:50:40;;;;;;;6.03;3.57;;;4.70;99.90;;;;;;5006430;28;20193;-78
2021/12/01 08:53:06;;;;;;;4.27;3.87;;;4.80;99.90;;;;;;4999041;28;20273;-77
2021/12/01 08:55:32;;;;;;;4.47;4.07;;;5.30;99.90;;;;;;5012247;28;20192;-77
2021/12/01 08:57:58;;;;;;;4.23;3.83;;;4.70;99.90;;;;;;5012277;28;20196;-76
2021/12/01 09:00:24;;;;;;;4.07;3.67;;;4.80;99.90;;;;;;5009722;28;20185;-76
2021/12/01 09:02:50;;;;;;;4.20;3.80;;;4.80;99.90;;;;;;5012028;28;20182;-75
2021/12/01 09:05:16;;;;;;;4.27;2.93;;;4.90;99.90;;;;;;5012447;28;20258;-78
2021/12/01 09:07:42;;;;;;;3.60;3.30;;;4.90;99.90;;;;;;5013000;28;20277;-75
2021/12/01 09:10:08;;;;;;;5.00;3.83;;;4.90;99.90;;;;;;5014471;28;20193;-77
2021/12/01 09:12:38;;;;;;;5.03;3.80;;;5.00;99.90;;;;;;5012901;28;20203;-77
2021/12/01 09:15:04;;;;;;;3.70;3.20;;;5.00;99.90;;;;;;5013008;28;20193;-78
2021/12/01 09:17:30;;;;;;;4.77;3.70;;;5.10;99.90;;;;;;5011541;28;20216;-77
2021/12/01 09:19:55;;;;;;;3.33;3.03;;;5.20;99.90;;;;;;5010383;28;20205;-76
2021/12/01 09:22:21;;;;;;;4.03;3.40;;;5.20;99.90;;;;;;5013188;28;20883;-76
2021/12/01 09:24:48;;;;;;;4.30;3.77;;;5.20;99.90;;;;;;5016394;28;20272;-76
2021/12/01 09:27:15;;;;;;;2.87;2.67;;;5.20;99.90;;;;;;5016484;28;20908;-79
2021/12/01 09:29:41;;;;;;;3.53;3.23;;;5.10;99.90;;;;;;5018319;28;20672;-78
2021/12/01 09:32:07;;;;;;;3.47;3.17;;;5.20;99.90;;;;;;5017681;28;20185;-77
2021/12/01 09:34:33;;;;;;;3.53;3.23;;;5.20;99.90;;;;;;5020971;28;20181;-77
2021/12/01 09:36:59;;;;;;;3.67;3.37;;;5.20;99.90;;;;;;5017100;28;20214;-78
2021/12/01 09:39:25;;;;;;;4.87;3.53;;;5.30;99.90;;;;;;5017325;28;20212;-79
2021/12/01 09:41:52;;;;;;;3.23;2.93;;;5.30;99.90;;;;;;5016095;28;20276;-77
2021/12/01 09:44:18;;;;;;;4.17;3.00;;;5.40;99.90;;;;;;5017420;28;20609;-78
2021/12/01 09:47:07;;;;;;;3.50;2.77;;;5.40;99.90;;;;;;5020822;28;20205;-78
2021/12/01 09:49:41;;;;;;;4.03;3.00;;;5.40;99.90;;;;;;5019842;28;20225;-78
2021/12/01 09:52:08;;;;;;;3.23;2.93;;;5.50;99.90;;;;;;5017230;28;20557;-77
2021/12/01 09:54:53;;;;;;;2.53;2.33;;;5.50;99.90;;;;;;5015423;28;20262;-77
2021/12/01 10:00:40;;;;;;;2.07;1.97;;;6.40;99.90;;;;;;5011553;28;20194;-77
2021/12/01 10:03:19;;;;;;;2.90;2.50;;;5.70;99.90;;;;;;5019887;28;20280;-79
2021/12/01 10:05:52;;;;;;;2.20;2.00;;;5.80;99.90;;;;;;5022369;28;20171;-79
2021/12/01 10:08:30;;;;;;;1.90;1.70;;;5.90;99.90;;;;;;5015416;28;20550;-78
2021/12/01 10:11:22;;;;;;;1.70;1.60;;;6.90;99.90;;;;;;5008011;28;20190;-78
2021/12/01 10:14:17;;;;;;;1.87;1.50;;;6.00;99.90;;;;;;5012868;28;20195;-79
2021/12/01 10:16:45;;;;;;;2.47;1.90;;;5.70;99.90;;;;;;5016398;28;20217;-78
2021/12/01 10:19:19;;;;;;;1.57;1.40;;;5.80;99.90;;;;;;5020072;28;20198;-79
2021/12/01 10:21:50;;;;;;;2.00;1.50;;;6.20;99.90;;;;;;5019612;28;20558;-78
2021/12/01 10:24:25;;;;;;;1.80;1.30;;;6.40;99.90;;;;;;5019880;28;20247;-78
2021/12/01 10:27:01;;;;;;;1.83;1.30;;;6.30;99.90;;;;;;5019795;28;20236;-78
2021/12/01 10:29:39;;;;;;;1.80;1.50;;;6.70;99.90;;;;;;5018383;28;20183;-78
2021/12/01 10:32:07;;;;;;;1.20;1.10;;;6.50;99.90;;;;;;5022670;28;20213;-78
2021/12/01 10:34:40;;;;;;;1.50;1.20;;;6.60;99.90;;;;;;5010991;28;20183;-78
2021/12/01 10:37:15;;;;;;;1.43;1.23;;;6.90;99.90;;;;;;5013159;28;20294;-78
2021/12/01 10:39:48;;;;;;;1.20;1.00;;;7.00;99.90;;;;;;5020016;28;20189;-79
2021/12/01 10:42:19;;;;;;;0.80;0.80;;;7.20;99.90;;;;;;5017604;28;20181;-79
2021/12/01 10:45:01;;;;;;;1.33;1.10;;;7.40;99.90;;;;;;5015515;28;20217;-78
2021/12/01 10:47:49;;;;;;;0.90;0.80;;;7.50;99.90;;;;;;5018979;28;20202;-78
2021/12/01 10:50:17;;;;;;;2.43;0.87;;;7.60;99.90;;;;;;5020686;28;20214;-77
2021/12/01 10:52:49;;;;;;;1.10;0.70;;;7.70;99.90;;;;;;5020755;28;20207;-77
2021/12/01 10:55:20;;;;;;;1.13;0.60;;;7.80;99.90;;;;;;5014929;28;20214;-79
2021/12/01 10:57:58;;;;;;;0.50;0.50;;;7.30;99.90;;;;;;5020337;28;20210;-79
2021/12/01 11:00:36;;;;;;;1.20;0.83;;;8.10;99.90;;;;;;5018569;28;20621;-79
2021/12/01 11:03:24;;;;;;;0.83;0.70;;;8.00;99.90;;;;;;5015100;28;20215;-77
2021/12/01 11:06:19;;;;;;;0.80;0.80;;;8.20;99.90;;;;;;5018350;28;20200;-78
2021/12/01 11:08:59;;;;;;;0.90;0.63;;;8.30;99.90;;;;;;5021531;28;20220;-78
2021/12/01 11:11:51;;;;;;;1.53;0.70;;;8.30;99.90;;;;;;5043817;28;20191;-77
2021/12/01 11:14:19;;;;;;;1.60;0.90;;;8.40;99.90;;;;;;5015458;28;20171;-77
2021/12/01 11:16:48;;;;;;;1.03;0.60;;;9.10;99.90;;;;;;5014837;28;20281;-77
2021/12/01 11:19:17;;;;;;;1.13;0.80;;;8.70;99.90;;;;;;5016200;28;20175;-78
2021/12/01 11:21:43;;;;;;;0.93;0.73;;;8.00;99.90;;;;;;5014608;28;20175;-76
2021/12/01 11:24:11;;;;;;;0.60;0.57;;;8.20;99.90;;;;;;5014747;28;20182;-77
2021/12/01 11:26:41;;;;;;;1.90;0.80;;;8.90;99.90;;;;;;5015241;28;20662;-77
2021/12/01 11:29:15;;;;;;;1.07;0.90;;;8.90;99.90;;;;;;5015324;28;20190;-79
2021/12/01 11:31:46;;;;;;;1.30;1.00;;;8.90;99.90;;;;;;5014626;28;20182;-77
2021/12/01 11:34:17;;;;;;;1.20;0.60;;;9.00;99.90;;;;;;5015036;28;20206;-77
2021/12/01 11:36:48;;;;;;;1.70;0.50;;;9.00;99.90;;;;;;5017335;28;20298;-78
2021/12/01 11:39:19;;;;;;;0.73;0.60;;;8.80;99.90;;;;;;5011865;28;20187;-77
2021/12/01 11:41:47;;;;;;;0.57;0.57;;;8.80;99.90;;;;;;5009550;28;20264;-78
2021/12/01 11:44:14;;;;;;;0.50;0.50;;;8.80;99.90;;;;;;5012697;28;20187;-78
2021/12/01 11:46:40;;;;;;;1.90;0.60;;;8.80;99.90;;;;;;5009247;28;20728;-77
2021/12/01 11:49:12;;;;;;;1.00;0.70;;;8.80;99.90;;;;;;5010454;28;20951;-79
2021/12/01 11:51:57;;;;;;;0.50;0.50;;;8.80;99.90;;;;;;5011788;28;20183;-78
2021/12/01 11:54:25;;;;;;;1.80;0.80;;;8.70;99.90;;;;;;5012042;28;20591;-75
2021/12/01 11:56:57;;;;;;;0.53;0.50;;;8.60;99.90;;;;;;5013466;28;20239;-78
2021/12/01 11:59:31;;;;;;;0.50;0.50;;;8.60;99.90;;;;;;5011217;28;20179;-77
2021/12/01 12:02:02;;;;;;;1.90;0.80;;;8.60;99.90;;;;;;5007058;28;20263;-77
2021/12/01 12:04:37;;;;;;;0.63;0.63;;;8.40;99.90;;;;;;5007875;28;20190;-76
2021/12/01 12:07:09;;;;;;;0.50;0.50;;;8.50;99.90;;;;;;5009567;28;20240;-75
2021/12/01 12:09:39;;;;;;;0.70;0.50;;;8.50;99.90;;;;;;5007383;28;20227;-77
2021/12/01 12:12:19;;;;;;;0.97;0.73;;;8.50;99.90;;;;;;5009843;28;20203;-76
2021/12/01 12:14:45;;;;;;;0.60;0.60;;;8.50;99.90;;;;;;5005020;28;20235;-76
2021/12/01 12:17:15;;;;;;;2.23;0.60;;;8.50;99.90;;;;;;5007821;28;20649;-78
2021/12/01 12:19:46;;;;;;;0.60;0.60;;;8.40;99.90;;;;;;5007947;28;20210;-77
2021/12/01 12:22:15;;;;;;;0.60;0.60;;;8.40;99.90;;;;;;5028451;28;20179;-77
2021/12/01 12:24:45;;;;;;;0.87;0.50;;;8.40;99.90;;;;;;5011691;28;20179;-78
2021/12/01 12:27:32;;;;;;;0.60;0.60;;;8.50;99.90;;;;;;5006319;28;20207;-78
2021/12/01 12:29:59;;;;;;;2.33;1.20;;;8.50;99.90;;;;;;5007062;28;20187;-77
2021/12/01 12:32:29;;;;;;;1.00;0.83;;;8.50;99.90;;;;;;5009616;28;20191;-76
2021/12/01 12:35:01;;;;;;;1.47;1.07;;;8.50;99.90;;;;;;5005409;28;20179;-77
2021/12/01 12:37:33;;;;;;;1.03;0.90;;;8.40;99.90;;;;;;5005658;28;20716;-77
2021/12/01 12:40:03;;;;;;;0.83;0.73;;;8.40;99.90;;;;;;5010660;28;20193;-77
2021/12/01 12:42:29;;;;;;;0.70;0.70;;;8.40;99.90;;;;;;5007302;28;20207;-78
2021/12/01 12:44:57;;;;;;;1.30;0.70;;;8.40;99.90;;;;;;5009640;28;20179;-77
2021/12/01 12:47:39;;;;;;;2.00;0.87;;;8.40;99.90;;;;;;5003273;28;20298;-77
2021/12/01 12:50:24;;;;;;;1.23;0.90;;;8.40;99.90;;;;;;5003111;28;20190;-77
2021/12/01 12:52:53;;;;;;;0.60;0.60;;;8.40;99.90;;;;;;5010521;28;20218;-77
2021/12/01 12:55:21;;;;;;;1.30;0.60;;;8.40;99.90;;;;;;5008822;28;20183;-75
2021/12/01 12:58:07;;;;;;;2.23;0.80;;;8.30;99.90;;;;;;5009588;28;20219;-77
2021/12/01 13:00:56;;;;;;;3.37;0.90;;;8.40;99.90;;;;;;5012790;28;20670;-76
2021/12/01 13:03:38;;;;;;;1.00;0.80;;;8.30;99.90;;;;;;5006872;28;20579;-76
2021/12/01 13:06:24;;;;;;;1.10;1.00;;;8.30;99.90;;;;;;5007168;28;20559;-77
2021/12/01 13:08:50;;;;;;;1.80;1.00;;;8.30;99.90;;;;;;5017767;28;20183;-75
2021/12/01 13:11:20;;;;;;;1.97;1.10;;;8.30;99.90;;;;;;5009452;28;20188;-78
2021/12/01 13:13:53;;;;;;;2.20;1.20;;;8.30;99.90;;;;;;5013371;28;20679;-76